Time;durP1;ratioP1;P1;durP2;ratioP2;P2;SDS_P1;SDS_P2;PMS_P1;PMS_P2;Temp;Humidity;BMP_temperature;BMP_pressure;BME280_temperature;BME280_humidity;BME280_pressure;Samples;Min_cycle;Max_cycle;Signal;HPM_P1;HPM_P2
2021/05/14 00:00:30;;;;;;;5.73;4.20;;;11.20;99.90;;;;;;4968110;28;20427;-82
2021/05/14 00:02:56;;;;;;;3.47;3.27;;;11.20;99.90;;;;;;4959762;28;20470;-82
2021/05/14 00:05:23;;;;;;;4.20;3.80;;;11.00;99.90;;;;;;4959498;28;20451;-83
2021/05/14 00:07:50;;;;;;;4.13;3.77;;;10.70;99.90;;;;;;4967336;28;20454;-81
2021/05/14 00:10:21;;;;;;;3.73;3.43;;;10.90;99.90;;;;;;4963236;28;20427;-81
2021/05/14 00:12:49;;;;;;;3.23;2.93;;;11.30;99.90;;;;;;4966400;28;20441;-81
2021/05/14 00:15:16;;;;;;;3.50;3.20;;;11.00;99.90;;;;;;4966712;28;20459;-83
2021/05/14 00:17:42;;;;;;;3.27;3.07;;;11.20;99.90;;;;;;4963230;28;20504;-83
2021/05/14 00:20:11;;;;;;;4.00;3.70;;;11.10;99.90;;;;;;4965684;28;20461;-81
2021/05/14 00:22:37;;;;;;;2.70;2.50;;;11.20;99.90;;;;;;4965018;28;20490;-82
2021/05/14 00:25:06;;;;;;;3.50;3.20;;;11.40;99.90;;;;;;4966148;28;20529;-80
2021/05/14 00:27:32;;;;;;;3.23;3.00;;;11.10;99.90;;;;;;4965333;28;20450;-81
2021/05/14 00:29:58;;;;;;;4.93;3.40;;;10.50;99.90;;;;;;4967087;28;20454;-82
2021/05/14 00:32:25;;;;;;;2.90;2.60;;;11.10;99.90;;;;;;4960909;28;20444;-81
2021/05/14 00:34:51;;;;;;;2.60;2.47;;;11.70;99.90;;;;;;4961061;28;20449;-82
2021/05/14 00:37:17;;;;;;;2.43;2.23;;;10.60;99.90;;;;;;4965468;28;20450;-82
2021/05/14 00:39:44;;;;;;;3.43;2.67;;;11.80;99.90;;;;;;4964490;28;20459;-81
2021/05/14 00:42:12;;;;;;;2.67;2.47;;;11.20;99.90;;;;;;4963833;28;20477;-81
2021/05/14 00:44:43;;;;;;;2.20;2.10;;;11.30;99.90;;;;;;4965743;28;20457;-81
2021/05/14 00:47:10;;;;;;;2.90;2.70;;;10.80;99.90;;;;;;4968908;28;20450;-81
2021/05/14 00:49:36;;;;;;;3.23;3.00;;;11.00;99.90;;;;;;4966674;28;20450;-79
2021/05/14 00:52:03;;;;;;;2.90;2.47;;;11.10;99.90;;;;;;4965436;28;20465;-81
2021/05/14 00:54:31;;;;;;;2.50;2.30;;;11.20;99.90;;;;;;4964387;28;20464;-83
2021/05/14 00:56:58;;;;;;;2.17;2.03;;;10.60;99.90;;;;;;4956817;28;20439;-82
2021/05/14 00:59:25;;;;;;;3.10;2.83;;;11.20;99.90;;;;;;4957988;28;20548;-82
2021/05/14 01:01:52;;;;;;;3.40;3.10;;;11.10;99.90;;;;;;4959789;28;20591;-81
2021/05/14 01:04:18;;;;;;;2.67;2.47;;;11.10;99.90;;;;;;4972614;28;20461;-81
2021/05/14 01:06:44;;;;;;;2.87;2.60;;;10.50;99.90;;;;;;4970815;28;20450;-83
2021/05/14 01:09:10;;;;;;;2.83;2.60;;;10.70;99.90;;;;;;4960810;28;20453;-82
2021/05/14 01:11:36;;;;;;;3.47;3.17;;;11.10;99.90;;;;;;4960631;28;20800;-81
2021/05/14 01:14:03;;;;;;;2.83;2.63;;;10.70;99.90;;;;;;4959959;28;20501;-83
2021/05/14 01:16:30;;;;;;;2.73;2.53;;;11.10;99.90;;;;;;4960472;28;20465;-82
2021/05/14 01:18:57;;;;;;;2.60;2.40;;;11.30;99.90;;;;;;4960281;28;20433;-82
2021/05/14 01:21:24;;;;;;;2.60;2.30;;;11.00;99.90;;;;;;4960284;28;20456;-82
2021/05/14 01:23:50;;;;;;;2.60;2.20;;;11.20;99.90;;;;;;4959357;28;20474;-82
2021/05/14 01:26:18;;;;;;;2.63;2.43;;;10.60;99.90;;;;;;4959553;28;20446;-82
2021/05/14 01:28:45;;;;;;;2.17;2.07;;;11.50;99.90;;;;;;4959938;28;20765;-82
2021/05/14 01:31:12;;;;;;;2.43;2.33;;;11.00;99.90;;;;;;4958464;28;20511;-82
2021/05/14 01:33:39;;;;;;;2.60;2.40;;;11.10;99.90;;;;;;4957211;28;20522;-82
2021/05/14 01:36:06;;;;;;;2.53;2.33;;;10.60;99.90;;;;;;4959340;28;20462;-83
2021/05/14 01:38:34;;;;;;;2.83;2.60;;;11.20;99.90;;;;;;4958810;28;20461;-81
2021/05/14 01:41:00;;;;;;;2.60;2.40;;;11.00;99.90;;;;;;4959192;28;20532;-83
2021/05/14 01:43:27;;;;;;;2.53;2.33;;;10.70;99.90;;;;;;4963075;28;20523;-80
2021/05/14 01:45:54;;;;;;;2.70;2.50;;;10.80;99.90;;;;;;4960934;28;20450;-84
2021/05/14 01:48:20;;;;;;;1.67;1.57;;;10.80;99.90;;;;;;4959751;28;20457;-82
2021/05/14 01:50:46;;;;;;;2.30;2.10;;;10.80;99.90;;;;;;4961576;28;20450;-82
2021/05/14 01:53:12;;;;;;;2.50;2.30;;;10.30;99.90;;;;;;4960220;28;20478;-82
2021/05/14 01:55:40;;;;;;;2.50;2.30;;;11.30;99.90;;;;;;4960216;28;20433;-82
2021/05/14 01:58:06;;;;;;;1.87;1.70;;;10.70;99.90;;;;;;4969384;28;20454;-82
2021/05/14 02:00:33;;;;;;;2.33;2.13;;;10.30;99.90;;;;;;4976076;28;20449;-82
2021/05/14 02:03:00;;;;;;;2.60;2.40;;;11.40;99.90;;;;;;4962674;28;20466;-82
2021/05/14 02:05:26;;;;;;;2.87;2.67;;;11.10;99.90;;;;;;4960249;28;20484;-82
2021/05/14 02:07:54;;;;;;;2.83;2.63;;;10.40;99.90;;;;;;4958923;28;20999;-82
2021/05/14 02:10:21;;;;;;;3.30;3.10;;;11.20;99.90;;;;;;4959259;28;20477;-82
2021/05/14 02:12:48;;;;;;;3.87;3.57;;;11.20;99.90;;;;;;4958655;28;20473;-83
2021/05/14 02:15:15;;;;;;;4.37;3.97;;;;;;;;;;4960372;28;20446;-82
2021/05/14 02:17:41;;;;;;;4.10;3.80;;;;;;;;;;4959823;28;20446;-84
2021/05/14 02:20:08;;;;;;;3.93;3.63;;;11.10;99.90;;;;;;4958887;28;20512;-82
2021/05/14 02:22:35;;;;;;;3.83;3.53;;;;;;;;;;4958272;28;20490;-82
2021/05/14 02:25:01;;;;;;;3.17;2.97;;;;;;;;;;4958030;28;20480;-82
2021/05/14 02:27:28;;;;;;;3.70;3.40;;;11.00;99.90;;;;;;4959497;28;20454;-82
2021/05/14 02:29:55;;;;;;;3.70;3.40;;;10.50;99.90;;;;;;4958796;28;20486;-83
2021/05/14 02:32:24;;;;;;;4.00;3.70;;;10.40;99.90;;;;;;4958346;28;20505;-82
2021/05/14 02:34:50;;;;;;;5.00;4.60;;;10.70;99.90;;;;;;4958238;28;20549;-83
2021/05/14 02:37:16;;;;;;;4.50;4.20;;;10.30;99.90;;;;;;4968264;28;20458;-82
2021/05/14 02:39:42;;;;;;;4.87;4.43;;;10.70;99.90;;;;;;4959744;28;20824;-83
2021/05/14 02:42:08;;;;;;;4.47;4.17;;;;;;;;;;4958723;28;20482;-82
2021/05/14 02:44:35;;;;;;;4.97;4.67;;;11.20;99.90;;;;;;4958417;28;20427;-83
2021/05/14 02:47:02;;;;;;;5.27;4.87;;;10.50;99.90;;;;;;4961552;28;20450;-82
2021/05/14 02:49:28;;;;;;;5.30;4.90;;;10.90;99.90;;;;;;4961320;28;20454;-82
2021/05/14 02:51:54;;;;;;;5.40;5.00;;;10.60;99.90;;;;;;4959738;28;20465;-82
2021/05/14 02:54:21;;;;;;;5.00;4.50;;;11.30;99.90;;;;;;4958421;28;20488;-82
2021/05/14 02:56:47;;;;;;;5.57;5.17;;;10.40;99.90;;;;;;4958658;28;20461;-83
2021/05/14 02:59:13;;;;;;;6.30;5.80;;;11.00;99.90;;;;;;4957576;28;20458;-83
2021/05/14 03:01:39;;;;;;;5.83;5.23;;;11.00;99.90;;;;;;4965813;28;20469;-81
2021/05/14 03:04:06;;;;;;;4.80;4.43;;;10.60;99.90;;;;;;4975101;28;20441;-79
2021/05/14 03:06:33;;;;;;;4.93;4.43;;;10.50;99.90;;;;;;4974701;28;20450;-80
2021/05/14 03:08:59;;;;;;;23.23;15.33;;;10.50;99.90;;;;;;4975556;28;20456;-82
2021/05/14 03:11:25;;;;;;;9.97;8.30;;;10.30;99.90;;;;;;4972696;28;20417;-80
2021/05/14 03:13:51;;;;;;;5.73;5.20;;;10.50;99.90;;;;;;4974620;28;20474;-81
2021/05/14 03:16:17;;;;;;;10.47;7.90;;;11.00;99.90;;;;;;4970489;28;20459;-83
2021/05/14 03:18:43;;;;;;;6.57;6.00;;;10.80;99.90;;;;;;4973486;28;20426;-80
2021/05/14 03:21:11;;;;;;;5.20;4.80;;;10.50;99.90;;;;;;4969306;28;20483;-79
2021/05/14 03:23:37;;;;;;;5.20;4.80;;;10.60;99.90;;;;;;4963496;28;20470;-81
2021/05/14 03:26:03;;;;;;;5.57;4.97;;;10.50;99.90;;;;;;4970973;28;20457;-82
2021/05/14 03:28:29;;;;;;;5.80;5.30;;;11.40;99.90;;;;;;4966931;28;20432;-82
2021/05/14 03:30:55;;;;;;;6.90;5.30;;;11.10;99.90;;;;;;4962104;28;20454;-80
2021/05/14 03:33:21;;;;;;;6.50;6.00;;;10.70;99.90;;;;;;4959026;28;20481;-80
2021/05/14 03:35:48;;;;;;;7.40;6.73;;;11.00;99.90;;;;;;4960633;28;20454;-81
2021/05/14 03:38:16;;;;;;;7.17;6.57;;;10.60;99.90;;;;;;4957771;28;20461;-81
2021/05/14 03:40:43;;;;;;;7.30;6.60;;;10.70;99.90;;;;;;4958494;28;20461;-80
2021/05/14 03:43:09;;;;;;;6.57;5.97;;;10.70;99.90;;;;;;4961099;28;20470;-83
2021/05/14 03:45:36;;;;;;;6.70;6.20;;;;;;;;;;4962420;28;20813;-84
2021/05/14 03:48:17;;;;;;;6.43;5.93;;;11.10;99.90;;;;;;4966513;28;20207;-78
2021/05/14 03:50:44;;;;;;;6.10;5.60;;;11.20;99.90;;;;;;4965327;28;20434;-84
2021/05/14 03:53:10;;;;;;;5.53;5.03;;;;;;;;;;5013755;22;20499;-86
2021/05/14 03:55:38;;;;;;;7.50;6.27;;;11.00;99.90;;;;;;5114270;28;20927;-86
2021/05/14 03:58:04;;;;;;;6.10;5.60;;;11.10;99.90;;;;;;5105105;28;20443;-85
2021/05/14 04:00:31;;;;;;;5.70;5.20;;;;;;;;;;5107908;28;20448;-86
2021/05/14 04:02:57;;;;;;;5.40;4.90;;;11.00;99.90;;;;;;5105680;28;20454;-86
2021/05/14 04:05:24;;;;;;;6.73;5.47;;;10.60;99.90;;;;;;5103777;28;20399;-85
2021/05/14 04:07:50;;;;;;;5.70;5.20;;;;;;;;;;5101185;28;20431;-86
2021/05/14 04:10:19;;;;;;;4.97;4.57;;;11.10;99.90;;;;;;5100827;28;20503;-86
2021/05/14 04:15:31;;;;;;;4.60;4.20;;;10.90;99.90;;;;;;5100176;28;20424;-86
2021/05/14 04:17:57;;;;;;;3.80;3.50;;;10.50;99.90;;;;;;5099015;28;20447;-86
2021/05/14 04:20:23;;;;;;;3.57;3.30;;;10.50;99.90;;;;;;5106864;28;20418;-86
2021/05/14 04:22:54;;;;;;;4.30;3.50;;;11.10;99.90;;;;;;5110339;28;20505;-85
2021/05/14 04:25:20;;;;;;;2.40;2.30;;;11.00;99.90;;;;;;5111692;28;20448;-85
2021/05/14 04:27:48;;;;;;;2.57;2.37;;;11.00;99.90;;;;;;5109750;28;20458;-85
2021/05/14 04:30:17;;;;;;;3.40;3.20;;;11.00;99.90;;;;;;5110449;28;20455;-87
2021/05/14 04:32:47;;;;;;;3.80;3.50;;;10.90;99.90;;;;;;5108867;28;20512;-85
2021/05/14 04:35:14;;;;;;;3.60;3.30;;;;;;;;;;5110716;28;20459;-86
2021/05/14 04:37:40;;;;;;;4.00;3.20;;;10.40;99.90;;;;;;5112573;28;20471;-86
2021/05/14 04:40:09;;;;;;;3.53;3.23;;;10.30;99.90;;;;;;5114934;28;20439;-85
2021/05/14 05:34:43;;;;;;;3.63;3.27;;;10.80;99.90;;;;;;4900263;29;20526;-86
2021/05/14 05:37:09;;;;;;;4.20;3.00;;;10.80;99.90;;;;;;4901649;29;20852;-86
2021/05/14 05:39:36;;;;;;;3.13;2.93;;;10.60;99.90;;;;;;5019055;28;20945;-86
2021/05/14 05:42:02;;;;;;;3.50;3.20;;;10.90;99.90;;;;;;5075914;28;20998;-85
2021/05/14 05:44:29;;;;;;;3.57;3.27;;;10.70;99.90;;;;;;5103076;28;20459;-84
2021/05/14 05:46:57;;;;;;;3.47;3.17;;;10.90;99.90;;;;;;5099152;28;20522;-86
2021/05/14 05:49:25;;;;;;;4.47;4.07;;;;;;;;;;5101859;28;20539;-86
2021/05/14 05:51:55;;;;;;;3.03;2.83;;;10.80;99.90;;;;;;5107581;28;20448;-86
2021/05/14 05:54:23;;;;;;;4.70;4.00;;;;;;;;;;5105990;28;20505;-85
2021/05/14 05:56:55;;;;;;;3.40;3.10;;;10.40;99.90;;;;;;5100209;28;20455;-86
2021/05/14 05:59:23;;;;;;;5.00;3.50;;;;;;;;;;5100728;28;20452;-86
2021/05/14 06:01:51;;;;;;;4.00;3.70;;;11.10;99.90;;;;;;5100206;28;20858;-85
2021/05/14 06:04:19;;;;;;;3.80;3.50;;;10.80;99.90;;;;;;5100818;28;20842;-85
2021/05/14 06:06:47;;;;;;;5.87;3.87;;;10.90;99.90;;;;;;5101752;28;20479;-85
2021/05/14 06:09:16;;;;;;;3.80;3.50;;;10.90;99.90;;;;;;5102521;28;20538;-85
2021/05/14 06:11:44;;;;;;;4.23;3.83;;;;;;;;;;5101588;28;20459;-86
2021/05/14 06:24:59;;;;;;;4.57;4.20;;;;;;;;;;4846930;29;20515;-88
2021/05/14 06:27:50;;;;;;;;;;;;;;;;;;;;;
2021/05/14 06:30:29;;;;;;;6.70;5.00;;;;;;;;;;5068007;28;20441;-88
2021/05/14 06:33:34;;;;;;;;;;;;;;;;;;;;;
2021/05/14 06:39:12;;;;;;;9.20;6.70;;;;;;;;;;5057590;28;20455;-88
2021/05/14 06:49:14;;;;;;;8.43;6.73;;;10.60;99.90;;;;;;5120529;28;20449;-88
2021/05/14 06:55:21;;;;;;;7.07;6.00;;;10.80;99.90;;;;;;4959050;29;20486;-89
2021/05/14 07:07:25;;;;;;;4.17;3.77;;;;;;;;;;5122255;28;20487;-87
2021/05/14 07:10:13;;;;;;;4.87;4.47;;;;;;;;;;5123492;28;20498;-86
2021/05/14 07:13:09;;;;;;;9.03;5.30;;;10.80;99.90;;;;;;5123644;28;20408;-88
2021/05/14 07:35:26;;;;;;;6.00;3.90;;;10.80;99.90;;;;;;5117578;22;20632;-88
2021/05/14 07:43:46;;;;;;;3.70;3.20;;;;;;;;;;5103945;28;20507;-86
2021/05/14 08:02:54;;;;;;;3.97;3.10;;;10.80;99.90;;;;;;5026289;28;20470;-87
2021/05/14 08:09:19;;;;;;;3.53;2.60;;;10.80;99.90;;;;;;5017293;28;20402;-88
2021/05/14 08:26:40;;;;;;;2.40;1.93;;;10.70;99.90;;;;;;3197830;22;20495;-87
2021/05/14 08:44:25;;;;;;;2.33;2.13;;;10.80;99.90;;;;;;4976011;28;20455;-87
2021/05/14 08:47:20;;;;;;;2.77;2.50;;;;;;;;;;5014616;28;20447;-87
2021/05/14 08:50:17;;;;;;;2.73;2.30;;;10.70;99.90;;;;;;5001642;28;20440;-87
2021/05/14 08:56:25;;;;;;;5.37;3.53;;;10.60;99.90;;;;;;5010370;28;20425;-86
2021/05/14 09:02:32;;;;;;;5.53;4.00;;;10.50;99.90;;;;;;4986090;28;20527;-88
2021/05/14 09:05:44;;;;;;;4.00;3.60;;;;;;;;;;5000839;28;20454;-87
2021/05/14 09:15:43;;;;;;;4.30;3.60;;;10.50;99.90;;;;;;4983349;28;20801;-87
2021/05/14 09:21:43;;;;;;;4.13;3.00;;;;;;;;;;5040326;28;20419;-86
2021/05/14 09:44:52;;;;;;;;;;;;;;;;;;;;;
2021/05/14 10:01:13;;;;;;;;;;;;;;;;;;;;;
2021/05/14 10:06:59;;;;;;;3.60;3.00;;;10.80;99.90;;;;;;4980381;28;20454;-88
2021/05/14 10:09:37;;;;;;;3.10;2.83;;;;;;;;;;5033552;28;20478;-88
2021/05/14 10:14:58;;;;;;;4.83;3.53;;;;;;;;;;5017238;28;20467;-88
2021/05/14 10:17:25;;;;;;;3.83;3.20;;;;;;;;;;5017702;28;20492;-88
2021/05/14 10:56:27;;;;;;;1.67;1.57;;;11.80;99.90;;;;;;4904177;29;20440;-86
2021/05/14 10:59:30;;;;;;;6.30;2.30;;;11.80;99.90;;;;;;4935163;28;20457;-87
2021/05/14 11:02:45;;;;;;;2.17;1.80;;;12.00;99.90;;;;;;4964350;28;20494;-87
2021/05/14 11:05:31;;;;;;;2.57;2.33;;;12.10;99.90;;;;;;5067863;28;20445;-87
2021/05/14 11:08:12;;;;;;;3.13;2.17;;;;;;;;;;5066456;28;20476;-87
2021/05/14 11:11:23;;;;;;;4.43;2.27;;;12.30;99.90;;;;;;5065905;28;20456;-87
2021/05/14 11:14:15;;;;;;;3.17;2.80;;;12.50;99.90;;;;;;5057692;28;20461;-87
2021/05/14 11:16:58;;;;;;;2.43;1.70;;;12.60;99.90;;;;;;5054856;28;20464;-87
2021/05/14 11:19:31;;;;;;;2.23;2.03;;;;;;;;;;5062362;28;20450;-87
2021/05/14 11:22:38;;;;;;;2.13;2.03;;;12.40;99.90;;;;;;5064845;28;20477;-87
2021/05/14 11:25:20;;;;;;;4.90;2.20;;;12.60;99.90;;;;;;5068431;28;20492;-86
2021/05/14 11:28:00;;;;;;;3.33;1.93;;;;;;;;;;5067911;28;20839;-86
2021/05/14 11:30:43;;;;;;;2.43;2.17;;;;;;;;;;5068401;28;20845;-86
2021/05/14 11:33:39;;;;;;;2.17;2.07;;;12.60;99.90;;;;;;5064137;28;20519;-86
2021/05/14 11:36:08;;;;;;;2.30;2.03;;;;;;;;;;5065629;28;20428;-87
2021/05/14 11:38:38;;;;;;;3.83;3.53;;;;;;;;;;5073167;28;20448;-87
2021/05/14 11:41:18;;;;;;;2.17;1.97;;;;;;;;;;5077112;28;20429;-87
2021/05/14 11:43:55;;;;;;;3.40;2.00;;;;;;;;;;5075456;28;20588;-87
2021/05/14 11:46:31;;;;;;;2.27;2.00;;;;;;;;;;5066656;28;20449;-86
2021/05/14 11:49:15;;;;;;;3.50;2.10;;;;;;;;;;5063376;28;20468;-87
2021/05/14 11:51:46;;;;;;;2.27;2.07;;;12.20;99.90;;;;;;5062358;28;20485;-87
2021/05/14 11:54:22;;;;;;;2.50;2.30;;;;;;;;;;5061823;28;20454;-87
2021/05/14 11:57:10;;;;;;;3.60;3.07;;;12.30;99.90;;;;;;5062866;28;20449;-87
2021/05/14 12:02:55;;;;;;;5.20;3.23;;;12.20;99.90;;;;;;5063224;28;20546;-87
2021/05/14 12:05:36;;;;;;;4.27;3.77;;;;;;;;;;5064495;28;20441;-87
2021/05/14 12:23:16;;;;;;;10.60;4.50;;;12.00;99.90;;;;;;805755;26;20790;-87
2021/05/14 12:33:53;;;;;;;2.20;1.80;;;12.20;99.90;;;;;;5003925;28;20436;-87
2021/05/14 12:36:57;;;;;;;1.47;1.30;;;12.40;99.90;;;;;;5050389;28;20454;-87
2021/05/14 12:39:40;;;;;;;2.63;2.43;;;;;;;;;;5042723;28;20473;-87
2021/05/14 12:42:30;;;;;;;;;;;;;;;;;;;;;
2021/05/14 12:45:49;;;;;;;2.10;1.93;;;12.30;99.90;;;;;;5082455;28;20907;-87
2021/05/14 12:48:34;;;;;;;1.90;1.80;;;;;;;;;;5071761;28;20484;-87
2021/05/14 12:51:31;;;;;;;3.50;2.03;;;12.60;99.90;;;;;;5089548;28;20465;-87
2021/05/14 12:54:02;;;;;;;2.40;1.53;;;;;;;;;;5092851;28;20452;-87
2021/05/14 12:56:55;;;;;;;4.00;1.50;;;12.20;99.90;;;;;;5099199;28;20475;-87
2021/05/14 13:13:45;;;;;;;;;;;;;;;;;;;;;
2021/05/14 13:16:49;;;;;;;2.90;1.60;;;12.40;99.90;;;;;;5004054;28;20534;-88
2021/05/14 13:32:56;;;;;;;1.40;1.10;;;12.40;99.90;;;;;;4920447;29;20990;-88
2021/05/14 14:11:10;;;;;;;2.30;2.10;;;;;;;;;;4863453;28;20466;-87
2021/05/14 14:19:46;;;;;;;3.63;1.67;;;12.20;99.90;;;;;;5045900;28;20477;-83
2021/05/14 14:22:12;;;;;;;1.50;1.40;;;12.30;99.90;;;;;;5044193;28;20478;-80
2021/05/14 14:24:38;;;;;;;1.70;1.60;;;12.10;99.90;;;;;;5045062;28;20451;-83
2021/05/14 14:27:05;;;;;;;3.63;1.40;;;12.00;99.90;;;;;;5048026;28;20942;-80
2021/05/14 14:29:32;;;;;;;3.03;1.73;;;12.00;99.90;;;;;;5047406;28;21008;-81
2021/05/14 14:31:58;;;;;;;5.57;2.70;;;11.80;99.90;;;;;;5043573;28;20509;-82
2021/05/14 14:34:24;;;;;;;3.73;1.93;;;11.50;99.90;;;;;;5042438;28;20458;-81
2021/05/14 14:36:50;;;;;;;2.60;1.80;;;12.00;99.90;;;;;;5043425;28;20453;-81
2021/05/14 14:39:16;;;;;;;1.83;1.50;;;12.30;99.90;;;;;;5042362;28;20842;-82
2021/05/14 14:41:42;;;;;;;1.80;1.70;;;11.60;99.90;;;;;;5042677;28;20443;-82
2021/05/14 14:44:09;;;;;;;2.00;1.70;;;11.70;99.90;;;;;;5044584;28;20482;-81
2021/05/14 14:46:35;;;;;;;2.03;1.90;;;12.40;99.90;;;;;;5050080;28;20504;-82
2021/05/14 14:49:02;;;;;;;2.00;1.90;;;12.20;99.90;;;;;;5050169;28;20856;-82
2021/05/14 14:51:28;;;;;;;1.63;1.50;;;12.30;99.90;;;;;;5048875;28;21014;-81
2021/05/14 14:53:55;;;;;;;2.73;1.67;;;;;;;;;;5046567;28;20441;-81
2021/05/14 14:56:21;;;;;;;6.97;2.00;;;12.30;99.90;;;;;;5047516;28;20427;-83
2021/05/14 14:58:47;;;;;;;3.10;1.80;;;12.10;99.90;;;;;;5045534;28;20466;-80
2021/05/14 15:01:14;;;;;;;1.70;1.60;;;12.80;99.90;;;;;;5042088;28;20450;-82
2021/05/14 15:03:40;;;;;;;2.10;1.47;;;12.30;99.90;;;;;;5041527;28;20602;-82
2021/05/14 15:06:06;;;;;;;1.97;1.87;;;12.10;99.90;;;;;;5042669;28;20455;-83
2021/05/14 15:08:32;;;;;;;2.70;2.30;;;11.90;99.90;;;;;;5044972;28;20469;-82
2021/05/14 15:11:01;;;;;;;2.43;1.77;;;12.40;99.90;;;;;;5042553;28;20446;-82
2021/05/14 15:13:28;;;;;;;2.20;1.80;;;12.70;99.90;;;;;;5044281;28;20459;-84
2021/05/14 15:15:54;;;;;;;4.63;1.93;;;;;;;;;;5043162;28;20450;-84
2021/05/14 15:18:21;;;;;;;3.10;1.70;;;12.80;99.90;;;;;;5051173;28;20473;-83
2021/05/14 15:20:47;;;;;;;5.83;1.90;;;12.50;99.90;;;;;;5061761;28;20445;-83
2021/05/14 15:23:18;;;;;;;1.57;1.30;;;12.60;99.90;;;;;;5063180;28;20481;-84
2021/05/14 15:25:44;;;;;;;1.90;1.67;;;12.60;99.90;;;;;;5063041;28;20430;-84
2021/05/14 15:28:12;;;;;;;2.20;1.60;;;12.20;99.90;;;;;;5064051;28;20473;-82
2021/05/14 15:30:38;;;;;;;2.80;1.40;;;12.50;99.90;;;;;;5063756;28;20827;-82
2021/05/14 15:33:04;;;;;;;1.90;1.50;;;12.40;99.90;;;;;;5069063;28;20441;-82
2021/05/14 15:35:31;;;;;;;1.63;1.53;;;12.20;99.90;;;;;;5068706;28;20449;-81
2021/05/14 15:37:58;;;;;;;14.30;9.87;;;12.70;99.90;;;;;;5064757;28;20473;-82
2021/05/14 15:40:25;;;;;;;2.40;1.40;;;13.00;99.90;;;;;;5061988;28;20446;-82
2021/05/14 15:42:51;;;;;;;2.10;1.53;;;12.90;99.90;;;;;;5060453;28;20569;-82
2021/05/14 15:45:18;;;;;;;2.13;1.50;;;11.70;99.90;;;;;;5060973;28;20445;-81
2021/05/14 15:47:44;;;;;;;1.53;1.37;;;13.00;99.90;;;;;;5063242;28;20461;-82
2021/05/14 15:50:11;;;;;;;1.57;1.30;;;12.40;99.90;;;;;;5064967;28;20461;-82
2021/05/14 15:52:38;;;;;;;1.83;1.70;;;13.00;99.90;;;;;;5065994;28;20438;-82
2021/05/14 15:55:05;;;;;;;1.40;1.30;;;12.60;99.90;;;;;;5062455;28;20459;-84
2021/05/14 15:57:32;;;;;;;1.77;1.63;;;;;;;;;;5061873;28;20465;-82
2021/05/14 15:59:58;;;;;;;2.00;1.80;;;12.80;99.90;;;;;;5061075;28;20454;-81
2021/05/14 16:02:24;;;;;;;1.87;1.77;;;12.00;99.90;;;;;;5060680;28;20477;-82
2021/05/14 16:04:50;;;;;;;2.87;2.10;;;12.60;99.90;;;;;;5061096;28;20453;-82
2021/05/14 16:07:17;;;;;;;1.60;1.50;;;12.80;99.90;;;;;;5059802;28;20435;-82
2021/05/14 16:09:44;;;;;;;2.73;2.40;;;13.00;99.90;;;;;;5059407;28;20227;-81
2021/05/14 16:12:10;;;;;;;3.50;1.90;;;13.10;99.90;;;;;;5059528;28;20450;-82
2021/05/14 16:14:36;;;;;;;1.60;1.50;;;13.70;99.90;;;;;;5060232;28;20449;-82
2021/05/14 16:17:10;;;;;;;1.87;1.60;;;13.40;99.90;;;;;;5060346;28;20453;-81
2021/05/14 16:19:39;;;;;;;2.47;1.97;;;12.90;99.90;;;;;;5061761;28;20444;-83
2021/05/14 16:22:06;;;;;;;2.50;1.67;;;13.50;99.90;;;;;;5074645;28;20472;-82
2021/05/14 16:24:34;;;;;;;1.60;1.50;;;;;;;;;;5067815;28;20449;-81
2021/05/14 16:27:02;;;;;;;1.87;1.37;;;13.00;99.90;;;;;;5073258;28;20430;-83
2021/05/14 16:29:29;;;;;;;2.80;1.43;;;13.00;99.90;;;;;;5071704;28;20458;-81
2021/05/14 16:31:55;;;;;;;1.50;1.40;;;13.10;99.90;;;;;;5065900;28;20473;-83
2021/05/14 16:34:21;;;;;;;5.73;3.83;;;12.50;99.90;;;;;;5065289;28;20445;-80
2021/05/14 16:36:47;;;;;;;1.33;1.10;;;12.10;99.90;;;;;;5062895;28;20444;-81
2021/05/14 16:39:13;;;;;;;1.43;1.23;;;12.10;99.90;;;;;;5060170;28;20469;-79
2021/05/14 16:41:39;;;;;;;2.30;1.67;;;12.20;99.90;;;;;;5061178;28;20449;-82
2021/05/14 16:44:06;;;;;;;2.40;2.20;;;12.60;99.90;;;;;;5066752;28;20496;-81
2021/05/14 16:46:33;;;;;;;2.90;1.80;;;12.20;99.90;;;;;;5063086;28;20459;-82
2021/05/14 16:48:59;;;;;;;1.60;1.45;;;;;;;;;;5063854;28;20931;-82
2021/05/14 16:51:25;;;;;;;2.20;1.60;;;12.50;99.90;;;;;;5061196;28;20203;-82
2021/05/14 16:53:52;;;;;;;5.80;2.13;;;;;;;;;;5060680;28;20468;-81
2021/05/14 16:56:18;;;;;;;3.03;2.00;;;12.20;99.90;;;;;;5060819;28;20449;-83
2021/05/14 16:58:44;;;;;;;2.10;1.40;;;;;;;;;;5062043;28;20447;-78
2021/05/14 17:01:12;;;;;;;1.50;1.40;;;12.10;99.90;;;;;;5061781;28;20452;-81
2021/05/14 17:03:38;;;;;;;3.27;1.57;;;12.10;99.90;;;;;;5062539;28;20480;-82
2021/05/14 17:06:13;;;;;;;2.27;2.07;;;12.10;99.90;;;;;;5060789;28;20560;-82
2021/05/14 17:08:39;;;;;;;1.47;1.33;;;;;;;;;;5072204;28;20491;-80
2021/05/14 17:11:05;;;;;;;2.20;1.43;;;12.10;99.90;;;;;;5067048;28;20442;-83
2021/05/14 17:13:33;;;;;;;3.30;1.30;;;11.40;99.90;;;;;;5061138;28;20441;-80
2021/05/14 17:15:59;;;;;;;1.73;1.63;;;11.40;99.90;;;;;;5061656;28;20823;-83
2021/05/14 17:18:26;;;;;;;2.30;1.50;;;11.90;99.90;;;;;;5060692;28;20485;-81
2021/05/14 17:20:52;;;;;;;1.40;1.17;;;11.60;99.90;;;;;;5061000;28;20433;-83
2021/05/14 17:23:18;;;;;;;1.50;1.40;;;11.80;99.90;;;;;;5062382;28;20481;-83
2021/05/14 17:25:45;;;;;;;1.80;1.70;;;11.10;99.90;;;;;;5061309;28;20445;-83
2021/05/14 17:28:11;;;;;;;2.57;1.53;;;11.40;99.90;;;;;;5060955;28;20516;-83
2021/05/14 17:30:37;;;;;;;1.83;1.73;;;10.90;99.90;;;;;;5060402;28;20524;-82
2021/05/14 17:33:03;;;;;;;1.40;1.30;;;11.60;99.90;;;;;;5060938;28;20499;-82
2021/05/14 17:35:30;;;;;;;1.53;1.43;;;10.90;99.90;;;;;;5059932;28;20528;-82
2021/05/14 17:37:56;;;;;;;4.00;2.13;;;11.00;99.90;;;;;;5060450;28;20465;-82
2021/05/14 17:40:23;;;;;;;2.00;1.90;;;11.50;99.90;;;;;;5061906;28;20442;-84
2021/05/14 17:42:50;;;;;;;2.13;1.80;;;11.40;99.90;;;;;;5063282;28;20539;-80
2021/05/14 17:45:16;;;;;;;4.47;2.20;;;11.20;99.90;;;;;;5066616;28;20489;-82
2021/05/14 17:47:43;;;;;;;2.33;1.85;;;;;;;;;;5064098;28;20454;-82
2021/05/14 17:50:10;;;;;;;3.37;2.00;;;11.60;99.90;;;;;;5063355;28;20249;-83
2021/05/14 17:52:37;;;;;;;2.13;2.03;;;11.80;99.90;;;;;;5063619;28;20456;-80
2021/05/14 17:55:05;;;;;;;5.53;2.80;;;11.10;99.90;;;;;;5063675;28;20427;-82
2021/05/14 17:57:32;;;;;;;2.57;1.80;;;11.60;99.90;;;;;;5065084;28;20473;-81
2021/05/14 17:59:58;;;;;;;2.67;2.47;;;11.70;99.90;;;;;;5064882;28;20457;-83
2021/05/14 18:02:24;;;;;;;3.20;2.00;;;11.20;99.90;;;;;;5067005;28;20457;-82
2021/05/14 18:04:52;;;;;;;2.07;1.77;;;;;;;;;;5066043;28;20446;-83
2021/05/14 18:07:21;;;;;;;3.00;2.70;;;;;;;;;;5065848;28;20925;-82
2021/05/14 18:09:49;;;;;;;3.43;2.50;;;11.30;99.90;;;;;;5066400;28;20456;-81
2021/05/14 18:12:15;;;;;;;2.57;2.33;;;11.20;99.90;;;;;;5075925;28;20456;-81
2021/05/14 18:14:42;;;;;;;3.30;3.00;;;10.80;99.90;;;;;;5077319;28;20440;-81
2021/05/14 18:17:08;;;;;;;2.10;1.90;;;11.70;99.90;;;;;;5077205;28;20450;-80
2021/05/14 18:19:34;;;;;;;2.63;2.43;;;11.10;99.90;;;;;;5077490;28;20454;-80
2021/05/14 18:22:00;;;;;;;2.23;2.00;;;11.10;99.90;;;;;;5076376;28;20433;-80
2021/05/14 18:24:26;;;;;;;2.80;2.10;;;11.60;99.90;;;;;;5077655;28;20474;-81
2021/05/14 18:26:53;;;;;;;3.10;2.73;;;11.30;99.90;;;;;;5078307;28;20449;-79
2021/05/14 18:29:20;;;;;;;1.93;1.60;;;;;;;;;;5078728;28;20466;-83
2021/05/14 18:31:46;;;;;;;2.17;2.07;;;11.20;99.90;;;;;;5078252;28;20445;-82
2021/05/14 18:34:12;;;;;;;2.90;2.00;;;10.30;99.90;;;;;;5071232;28;20438;-83
2021/05/14 18:36:39;;;;;;;4.40;2.90;;;11.10;99.90;;;;;;5067555;28;20866;-83
2021/05/14 18:39:06;;;;;;;4.28;3.20;;;11.40;99.90;;;;;;5065668;28;20448;-84
2021/05/14 18:41:32;;;;;;;3.50;2.70;;;11.40;99.90;;;;;;5064727;28;20206;-82
2021/05/14 18:43:59;;;;;;;3.33;2.45;;;11.30;99.90;;;;;;5060286;28;20524;-81
2021/05/14 18:46:25;;;;;;;3.43;2.80;;;10.80;99.90;;;;;;5061132;28;20581;-81
2021/05/14 18:48:51;;;;;;;2.40;2.20;;;;;;;;;;5062916;28;20494;-82
2021/05/14 18:51:18;;;;;;;2.60;2.40;;;11.20;99.90;;;;;;5066407;28;20199;-82
2021/05/14 18:53:44;;;;;;;2.20;2.10;;;10.80;99.90;;;;;;5066767;28;20449;-80
2021/05/14 18:56:10;;;;;;;5.00;2.73;;;11.30;99.90;;;;;;5064432;28;20503;-80
2021/05/14 18:58:36;;;;;;;1.90;1.80;;;11.20;99.90;;;;;;5064752;28;20465;-83
2021/05/14 19:01:04;;;;;;;3.17;2.70;;;11.00;99.90;;;;;;5067829;28;20450;-80
2021/05/14 19:03:30;;;;;;;3.57;2.37;;;11.10;99.90;;;;;;5070513;28;20478;-81
2021/05/14 19:05:56;;;;;;;3.37;2.50;;;10.90;99.90;;;;;;5069618;28;20536;-82
2021/05/14 19:08:23;;;;;;;3.17;2.47;;;10.90;99.90;;;;;;5068096;28;20495;-83
2021/05/14 19:10:50;;;;;;;6.67;2.30;;;10.40;99.90;;;;;;5062957;28;20492;-83
2021/05/14 19:13:18;;;;;;;2.90;2.47;;;11.00;99.90;;;;;;5062699;28;20802;-83
2021/05/14 19:15:45;;;;;;;3.00;2.67;;;10.90;99.90;;;;;;5061536;28;20536;-84
2021/05/14 19:18:12;;;;;;;7.73;3.20;;;11.10;99.90;;;;;;5062179;28;20485;-83
2021/05/14 19:20:39;;;;;;;3.70;3.00;;;11.10;99.90;;;;;;5061849;28;20440;-82